Decoded Metar for CYAT ( in ) (IATA:) | Meteo·Mobile Aviation Weather
aviador You're here:

CYAT Decoded Metar

in
Report Time2019-04-23 16:00:00
UTC Time2019-04-23 16:18:27
Flight Rules vfr VFR
Wind090° at 08 kt
W.Decomp.*RWY 06: 6.9 kt HW 4.0 kt RCW
Visibility9999 m
Phenomena:N/A
Clouds:N/A
Expected CloudBase > 3,600 ft AGL from Temp-Dew spread
CeilingNone
Temp01°C
Dew Point-8°C (51% RH)
AAT-4.8°C
QNH1025 hPa
Raw Report
METAR CYAT 231600Z AUTO 09008KT 9SM CLR 01/M08 A3026 RMK SLP249=

Extra information for CYAT:More info

Social comments